sim
Sign-in with your pilot id or email,
or register
Callsign
Passwort

Schedule Details

Flight Number: RYR5798 (1)
Departure: Thessaloniki International Airport (LGTS) at 18:50
Arrival: Frankfurt Hahn Airport (EDFH) at 21:35
Route: Ryanair Passenger Schedule. Enter filed route here before submitting Pirep.

Weather Information
Getting current METAR information for LGTS 210020Z 11005KT 9999 SCT025 09/07 Q1026 NOSIG
Getting current METAR information for EDFH 210020Z 09006KT 060V130 CAVOK 12/02 Q1024

Schedule Frequency

Route Map